createdAt,value
2023-04-15T00:00:42.185Z,78.47
2023-04-15T00:01:45.073Z,79.41
2023-04-15T00:02:48.464Z,79.16
2023-04-15T00:03:52.722Z,79.36
2023-04-15T00:04:55.602Z,79.42
2023-04-15T00:05:58.018Z,79.65
2023-04-15T00:07:00.829Z,79.20
2023-04-15T00:08:02.857Z,79.83
2023-04-15T00:09:05.951Z,79.63
2023-04-15T00:10:09.553Z,80.13
2023-04-15T00:11:12.538Z,80.19
2023-04-15T00:12:14.533Z,80.26
2023-04-15T00:13:17.442Z,80.53
2023-04-15T00:14:19.352Z,80.74
2023-04-15T00:15:22.387Z,80.74
2023-04-15T00:16:24.213Z,81.17
2023-04-15T00:17:27.004Z,81.34
2023-04-15T00:18:29.596Z,81.36
2023-04-15T00:19:33.300Z,81.69
2023-04-15T00:20:35.409Z,81.98
2023-04-15T00:21:38.245Z,81.81
2023-04-15T00:22:40.054Z,82.13
2023-04-15T00:23:42.882Z,81.73
2023-04-15T00:24:45.498Z,82.21
2023-04-15T00:25:49.711Z,82.18
2023-04-15T00:26:51.582Z,82.42
2023-04-15T00:27:54.386Z,82.75
2023-04-15T00:28:56.219Z,82.24
2023-04-15T00:29:59.048Z,82.51
2023-04-15T00:31:00.942Z,82.54
2023-04-15T00:32:03.805Z,82.85
2023-04-15T00:33:05.652Z,82.59
2023-04-15T00:34:08.578Z,83.03
2023-04-15T00:35:11.434Z,83.10
2023-04-15T00:36:13.615Z,83.26
2023-04-15T00:37:16.549Z,83.57
2023-04-15T00:38:18.580Z,83.67
2023-04-15T00:39:21.674Z,84.03
2023-04-15T00:40:24.883Z,83.83
2023-04-15T00:41:29.025Z,84.09
2023-04-15T00:42:31.286Z,84.36
2023-04-15T00:43:34.137Z,84.40
2023-04-15T00:44:35.960Z,84.25
2023-04-15T00:45:39.033Z,84.53
2023-04-15T00:46:41.678Z,84.29
2023-04-15T00:47:45.138Z,84.91
2023-04-15T00:48:47.288Z,84.78
2023-04-15T00:49:50.187Z,84.95
2023-04-15T00:50:53.716Z,84.86
2023-04-15T00:51:57.074Z,84.79
2023-04-15T00:52:59.263Z,84.84
2023-04-15T00:54:02.049Z,84.88
2023-04-15T00:55:04.783Z,84.80
2023-04-15T00:56:08.988Z,85.00
2023-04-15T00:57:12.278Z,85.09
2023-04-15T00:58:15.543Z,84.83
2023-04-15T00:59:17.887Z,84.67
2023-04-15T01:00:21.717Z,84.82
2023-04-15T01:01:25.492Z,84.83
2023-04-15T01:02:28.951Z,84.98
2023-04-15T01:03:31.297Z,85.27
2023-04-15T01:04:34.298Z,85.08
2023-04-15T01:05:37.242Z,85.31
2023-04-15T01:06:40.060Z,85.21
2023-04-15T01:07:41.923Z,85.10
2023-04-15T01:08:45.382Z,85.19
2023-04-15T01:09:47.983Z,84.88
2023-04-15T01:10:50.760Z,85.22
2023-04-15T01:11:53.800Z,84.81
2023-04-15T01:12:57.970Z,85.31
2023-04-15T01:14:00.972Z,85.19
2023-04-15T01:15:05.799Z,85.48
2023-04-15T01:16:08.963Z,85.42
2023-04-15T01:17:12.550Z,85.37
2023-04-15T01:18:15.722Z,85.85
2023-04-15T01:19:18.764Z,85.70
2023-04-15T01:20:22.126Z,85.77
2023-04-15T01:21:25.096Z,85.95
2023-04-15T01:22:28.047Z,85.76
2023-04-15T01:23:30.926Z,85.58
2023-04-15T01:24:33.259Z,85.55
2023-04-15T01:25:38.270Z,85.51
2023-04-15T01:26:42.336Z,85.81
2023-04-15T01:27:45.545Z,85.51
2023-04-15T01:28:48.941Z,84.84
2023-04-15T01:29:50.727Z,84.74
2023-04-15T01:31:07.479Z,84.88
2023-04-15T01:32:12.153Z,84.99
2023-04-15T01:33:15.237Z,85.07
2023-04-15T01:34:17.500Z,84.93
2023-04-15T01:35:21.197Z,85.17
2023-04-15T01:36:22.998Z,84.98
2023-04-15T01:37:29.979Z,84.84
2023-04-15T01:38:32.444Z,84.74
2023-04-15T01:39:35.408Z,84.93
2023-04-15T01:40:38.703Z,84.89
2023-04-15T01:41:42.337Z,85.30
2023-04-15T01:42:44.193Z,85.38
2023-04-15T01:43:47.551Z,85.43
2023-04-15T01:44:49.353Z,85.70
2023-04-15T01:45:52.182Z,85.52
2023-04-15T01:46:54.468Z,85.34
2023-04-15T01:47:57.348Z,85.24
2023-04-15T01:48:59.527Z,85.41
2023-04-15T01:50:02.740Z,84.96
2023-04-15T01:51:04.695Z,85.02
2023-04-15T01:52:08.006Z,85.09
2023-04-15T01:53:09.932Z,84.84
2023-04-15T01:54:12.772Z,84.88
2023-04-15T01:55:14.710Z,84.38
2023-04-15T01:56:19.504Z,84.56
2023-04-15T01:57:21.391Z,84.81
2023-04-15T01:58:24.255Z,85.03
2023-04-15T01:59:27.772Z,84.77
2023-04-15T02:00:32.527Z,84.88
2023-04-15T02:01:34.759Z,84.49
2023-04-15T02:02:38.083Z,85.23
2023-04-15T02:03:40.250Z,85.58
2023-04-15T02:04:43.566Z,85.77
2023-04-15T02:05:45.953Z,86.17
2023-04-15T02:06:48.805Z,85.60
2023-04-15T02:07:50.666Z,85.29
2023-04-15T02:08:53.786Z,85.48
2023-04-15T02:09:55.627Z,85.48
2023-04-15T02:10:58.535Z,85.42
2023-04-15T02:12:01.883Z,85.48
2023-04-15T02:13:05.010Z,85.50
2023-04-15T02:14:06.873Z,85.42
2023-04-15T02:15:11.621Z,85.47
2023-04-15T02:16:17.647Z,85.43
2023-04-15T02:17:20.742Z,84.98
2023-04-15T02:18:22.712Z,84.97
2023-04-15T02:19:26.026Z,84.96
2023-04-15T02:20:28.008Z,85.47
2023-04-15T02:21:35.360Z,84.87
2023-04-15T02:22:37.294Z,85.51
2023-04-15T02:23:40.060Z,85.76
2023-04-15T02:24:42.343Z,85.29
2023-04-15T02:25:53.872Z,85.51
2023-04-15T02:26:56.465Z,85.43
2023-04-15T02:28:00.642Z,85.44
2023-04-15T02:29:02.994Z,86.04
2023-04-15T02:30:07.222Z,86.59
2023-04-15T02:31:11.049Z,86.06
2023-04-15T02:32:13.375Z,86.74
2023-04-15T02:33:16.495Z,86.22
2023-04-15T02:34:18.596Z,85.78
2023-04-15T02:35:21.475Z,85.67
2023-04-15T02:36:24.390Z,85.74
2023-04-15T02:37:28.651Z,86.21
2023-04-15T02:38:32.010Z,86.33
2023-04-15T02:39:34.399Z,86.53
2023-04-15T02:40:37.309Z,86.06
2023-04-15T02:41:39.169Z,85.79
2023-04-15T02:42:42.665Z,86.24
2023-04-15T02:43:48.628Z,85.73
2023-04-15T02:44:51.997Z,85.93
2023-04-15T02:45:53.906Z,85.70
2023-04-15T02:46:58.696Z,85.82
2023-04-15T02:48:03.920Z,86.17
2023-04-15T02:49:06.678Z,85.73
2023-04-15T02:50:12.492Z,85.56
2023-04-15T02:51:18.337Z,85.60
2023-04-15T02:52:20.669Z,85.10
2023-04-15T02:53:23.882Z,85.63
2023-04-15T02:54:28.704Z,85.25
2023-04-15T02:55:31.493Z,84.86
2023-04-15T02:56:33.433Z,84.85
2023-04-15T02:57:37.316Z,85.18
2023-04-15T02:58:41.940Z,85.04
2023-04-15T02:59:46.245Z,85.07
2023-04-15T03:00:50.912Z,85.60
2023-04-15T03:01:53.801Z,84.61
2023-04-15T03:02:59.235Z,84.55
2023-04-15T03:04:02.345Z,84.51
2023-04-15T03:05:05.896Z,84.75
2023-04-15T03:06:09.595Z,85.56
2023-04-15T03:07:12.066Z,85.88
2023-04-15T03:08:15.826Z,85.84
2023-04-15T03:09:17.980Z,85.36
2023-04-15T03:10:21.543Z,86.05
2023-04-15T03:11:23.330Z,86.04
2023-04-15T03:12:26.822Z,86.30
2023-04-15T03:13:31.389Z,86.95
2023-04-15T03:14:36.673Z,86.98
2023-04-15T03:15:40.997Z,86.70
2023-04-15T03:16:42.814Z,86.61
2023-04-15T03:17:45.623Z,87.20
2023-04-15T03:18:47.830Z,86.66
2023-04-15T03:19:51.410Z,86.82
2023-04-15T03:20:53.246Z,86.67
2023-04-15T03:21:56.309Z,86.90
2023-04-15T03:22:58.327Z,86.42
2023-04-15T03:24:01.752Z,86.64
2023-04-15T03:25:04.903Z,86.87
2023-04-15T03:26:09.244Z,86.64
2023-04-15T03:27:11.773Z,86.84
2023-04-15T03:28:14.628Z,86.90
2023-04-15T03:29:16.566Z,86.44
2023-04-15T03:30:19.730Z,86.43
2023-04-15T03:31:23.308Z,86.02
2023-04-15T03:32:27.144Z,86.82
2023-04-15T03:33:29.988Z,86.25
2023-04-15T03:34:32.468Z,86.71
2023-04-15T03:35:35.470Z,86.38
2023-04-15T03:36:38.311Z,86.78
2023-04-15T03:37:40.157Z,86.38
2023-04-15T03:38:42.941Z,86.15
2023-04-15T03:39:44.778Z,85.92
2023-04-15T03:40:48.233Z,86.13
2023-04-15T03:41:50.009Z,86.34
2023-04-15T03:42:52.801Z,86.91
2023-04-15T03:43:54.737Z,86.35
2023-04-15T03:44:57.577Z,86.77
2023-04-15T03:46:01.756Z,86.48
2023-04-15T03:47:06.121Z,86.94
2023-04-15T03:48:17.060Z,87.14
2023-04-15T03:49:22.973Z,87.08
2023-04-15T03:50:26.152Z,86.98
2023-04-15T03:51:28.331Z,87.21
2023-04-15T03:52:31.376Z,87.51
2023-04-15T03:53:33.262Z,87.35
2023-04-15T03:54:36.190Z,88.02
2023-04-15T03:55:38.066Z,87.42
2023-04-15T03:56:40.841Z,86.79
2023-04-15T03:57:42.612Z,87.29
2023-04-15T03:58:45.374Z,87.21
2023-04-15T03:59:47.527Z,87.89
2023-04-15T04:00:50.488Z,87.62
2023-04-15T04:01:52.355Z,87.54
2023-04-15T04:02:56.995Z,87.44
2023-04-15T04:03:58.949Z,87.55
2023-04-15T04:05:01.778Z,87.61
2023-04-15T04:06:04.341Z,87.45
2023-04-15T04:07:07.148Z,87.30
2023-04-15T04:08:08.920Z,87.69
2023-04-15T04:09:12.193Z,87.48
2023-04-15T04:10:13.988Z,87.73
2023-04-15T04:11:17.218Z,87.85
2023-04-15T04:12:19.059Z,87.71
2023-04-15T04:13:21.823Z,87.71
2023-04-15T04:14:29.276Z,87.79
2023-04-15T04:15:32.230Z,88.02
2023-04-15T04:16:35.205Z,88.73
2023-04-15T04:17:37.265Z,88.34
2023-04-15T04:18:41.478Z,88.27
2023-04-15T04:19:43.310Z,88.15
2023-04-15T04:20:46.117Z,88.15
2023-04-15T04:21:48.066Z,88.43
2023-04-15T04:22:51.073Z,88.48
2023-04-15T04:23:52.839Z,88.44
2023-04-15T04:24:55.709Z,88.25
2023-04-15T04:25:57.678Z,88.98
2023-04-15T04:27:00.906Z,88.49
2023-04-15T04:28:03.175Z,88.92
2023-04-15T04:29:06.428Z,89.68
2023-04-15T04:30:09.087Z,89.55
2023-04-15T04:31:12.147Z,89.83
2023-04-15T04:32:14.427Z,89.47
2023-04-15T04:33:17.340Z,89.79
2023-04-15T04:34:21.081Z,90.37
2023-04-15T04:35:23.857Z,90.09
2023-04-15T04:36:26.572Z,89.56
2023-04-15T04:37:30.080Z,89.70
2023-04-15T04:38:31.855Z,90.07
2023-04-15T04:39:34.596Z,90.20
2023-04-15T04:40:36.777Z,89.61
2023-04-15T04:41:39.531Z,90.15
2023-04-15T04:42:41.527Z,89.62
2023-04-15T04:43:44.771Z,90.05
2023-04-15T04:44:47.162Z,90.31
2023-04-15T04:45:49.935Z,90.51
2023-04-15T04:46:51.912Z,90.81
2023-04-15T04:47:54.790Z,90.84
2023-04-15T04:48:56.596Z,90.59
2023-04-15T04:50:00.782Z,90.70
2023-04-15T04:51:03.610Z,90.38
2023-04-15T04:52:05.745Z,90.76
2023-04-15T04:53:09.059Z,91.08
2023-04-15T04:54:10.855Z,90.62
2023-04-15T04:55:13.620Z,91.31
2023-04-15T04:56:15.580Z,91.30
2023-04-15T04:57:18.339Z,91.28
2023-04-15T04:58:20.194Z,90.70
2023-04-15T04:59:23.130Z,90.79
2023-04-15T05:00:25.312Z,91.41
2023-04-15T05:01:28.505Z,91.22
2023-04-15T05:02:30.912Z,90.88
2023-04-15T05:03:34.038Z,91.01
2023-04-15T05:04:36.945Z,91.20
2023-04-15T05:05:41.569Z,90.66
2023-04-15T05:06:43.375Z,90.98
2023-04-15T05:07:46.181Z,91.20
2023-04-15T05:08:48.357Z,90.71
2023-04-15T05:09:51.126Z,90.40
2023-04-15T05:10:53.258Z,90.33
2023-04-15T05:11:56.668Z,90.28
2023-04-15T05:12:59.451Z,90.20
2023-04-15T05:14:02.605Z,90.69
2023-04-15T05:15:07.044Z,90.43
2023-04-15T05:16:09.450Z,90.00
2023-04-15T05:17:12.492Z,90.24
2023-04-15T05:18:14.607Z,89.86
2023-04-15T05:19:17.377Z,90.48
2023-04-15T05:20:19.147Z,90.08
2023-04-15T05:21:23.483Z,90.33
2023-04-15T05:22:25.337Z,90.21
2023-04-15T05:23:28.562Z,90.21
2023-04-15T05:24:30.566Z,90.39
2023-04-15T05:25:33.314Z,90.43
2023-04-15T05:26:35.214Z,90.13
2023-04-15T05:27:38.224Z,90.61
2023-04-15T05:28:41.299Z,90.61
2023-04-15T05:29:44.119Z,90.20
2023-04-15T05:30:46.400Z,90.41
2023-04-15T05:31:49.325Z,90.81
2023-04-15T05:32:51.240Z,90.71
2023-04-15T05:33:54.134Z,90.43
2023-04-15T05:34:56.936Z,90.17
2023-04-15T05:35:58.776Z,90.15
2023-04-15T05:37:02.931Z,90.12
2023-04-15T05:38:04.735Z,90.31
2023-04-15T05:39:07.517Z,90.01
2023-04-15T05:40:11.422Z,90.21
2023-04-15T05:41:17.074Z,90.25
2023-04-15T05:42:20.316Z,90.36
2023-04-15T05:43:23.173Z,90.28
2023-04-15T05:44:24.964Z,90.20
2023-04-15T05:45:27.771Z,89.98
2023-04-15T05:46:29.716Z,90.36
2023-04-15T05:47:32.722Z,90.34
2023-04-15T05:48:34.556Z,90.47
2023-04-15T05:49:37.837Z,90.22
2023-04-15T05:50:41.148Z,90.84
2023-04-15T05:51:43.922Z,90.71
2023-04-15T05:52:47.198Z,90.90
2023-04-15T05:53:49.957Z,90.03
2023-04-15T05:54:51.817Z,89.88
2023-04-15T05:55:55.469Z,90.02
2023-04-15T05:56:57.688Z,89.41
2023-04-15T05:58:00.447Z,89.14
2023-04-15T05:59:02.411Z,88.11
2023-04-15T06:00:06.497Z,87.50
2023-04-15T06:01:14.236Z,87.48
2023-04-15T06:02:17.578Z,86.93
2023-04-15T06:03:19.678Z,86.50
2023-04-15T06:04:22.870Z,86.80
2023-04-15T06:05:25.869Z,86.10
2023-04-15T06:06:27.821Z,85.07
2023-04-15T06:07:30.609Z,84.33
2023-04-15T06:08:33.755Z,83.82
2023-04-15T06:09:36.549Z,83.24
2023-04-15T06:10:38.408Z,83.21
2023-04-15T06:11:42.046Z,82.59
2023-04-15T06:12:43.840Z,82.66
2023-04-15T06:13:46.574Z,82.39
2023-04-15T06:14:48.505Z,82.41
2023-04-15T06:15:51.284Z,82.06
2023-04-15T06:16:53.135Z,82.00
2023-04-15T06:17:56.710Z,83.19
2023-04-15T06:18:58.495Z,81.90
2023-04-15T06:20:01.389Z,80.91
2023-04-15T06:21:03.716Z,80.48
2023-04-15T06:22:07.268Z,81.04
2023-04-15T06:23:09.088Z,79.87
2023-04-15T06:24:13.335Z,79.32
2023-04-15T06:25:15.574Z,78.41
2023-04-15T06:26:18.320Z,78.99
2023-04-15T06:27:20.806Z,78.87
2023-04-15T06:28:23.607Z,76.01
2023-04-15T06:29:25.407Z,76.88
2023-04-15T06:30:28.583Z,76.95
2023-04-15T06:31:31.584Z,76.67
2023-04-15T06:32:34.693Z,75.32
2023-04-15T06:33:36.949Z,75.74
2023-04-15T06:34:39.711Z,75.66
2023-04-15T06:35:41.506Z,74.43
2023-04-15T06:36:44.351Z,74.19
2023-04-15T06:37:47.340Z,74.50
2023-04-15T06:38:49.133Z,74.42
2023-04-15T06:39:53.285Z,74.45
2023-04-15T06:40:55.092Z,73.42
2023-04-15T06:41:58.159Z,72.65
2023-04-15T06:43:01.044Z,72.36
2023-04-15T06:44:03.078Z,72.11
2023-04-15T06:45:06.912Z,72.19
2023-04-15T06:46:08.835Z,72.00
2023-04-15T06:47:13.047Z,71.28
2023-04-15T06:48:15.866Z,70.70
2023-04-15T06:49:17.843Z,70.98
2023-04-15T06:50:20.625Z,71.61
2023-04-15T06:51:25.591Z,71.49
2023-04-15T06:52:29.522Z,70.51
2023-04-15T06:53:31.681Z,70.21
2023-04-15T06:54:34.438Z,70.60
2023-04-15T06:55:37.625Z,70.20
2023-04-15T06:56:40.444Z,69.00
2023-04-15T06:57:42.259Z,68.68
2023-04-15T06:58:46.178Z,68.44
2023-04-15T06:59:47.994Z,68.05
2023-04-15T07:00:51.124Z,67.70
2023-04-15T07:01:53.120Z,67.91
2023-04-15T07:02:56.515Z,67.16
2023-04-15T07:03:58.405Z,66.95
2023-04-15T07:05:01.670Z,66.11
2023-04-15T07:06:06.444Z,65.23
2023-04-15T07:07:09.432Z,65.85
2023-04-15T07:08:12.223Z,65.87
2023-04-15T07:09:15.348Z,66.28
2023-04-15T07:10:17.279Z,66.28
2023-04-15T07:11:22.132Z,66.36
2023-04-15T07:12:24.229Z,66.22
2023-04-15T07:13:27.040Z,65.37
2023-04-15T07:14:29.539Z,65.46
2023-04-15T07:15:32.354Z,65.06
2023-04-15T07:16:34.198Z,64.24
2023-04-15T07:17:37.334Z,64.30
2023-04-15T07:18:39.287Z,63.99
2023-04-15T07:19:42.130Z,64.28
2023-04-15T07:20:44.914Z,63.71
2023-04-15T07:21:47.161Z,63.90
2023-04-15T07:22:49.922Z,64.70
2023-04-15T07:23:52.946Z,64.58
2023-04-15T07:24:55.773Z,63.29
2023-04-15T07:25:57.611Z,63.30
2023-04-15T07:27:02.145Z,62.89
2023-04-15T07:28:04.236Z,62.74
2023-04-15T07:29:07.166Z,61.97
2023-04-15T07:30:10.653Z,61.56
2023-04-15T07:31:13.706Z,60.45
2023-04-15T07:32:15.600Z,61.05
2023-04-15T07:33:18.608Z,60.84
2023-04-15T07:34:20.812Z,60.34
2023-04-15T07:35:23.643Z,61.27
2023-04-15T07:36:25.501Z,61.09
2023-04-15T07:37:28.366Z,60.61
2023-04-15T07:38:30.169Z,60.72
2023-04-15T07:39:32.991Z,60.67
2023-04-15T07:40:34.875Z,60.37
2023-04-15T07:41:38.098Z,60.36
2023-04-15T07:42:42.297Z,60.33
2023-04-15T07:43:44.800Z,59.81
2023-04-15T07:44:47.552Z,59.63
2023-04-15T07:45:49.513Z,59.81
2023-04-15T07:46:52.467Z,59.05
2023-04-15T07:47:56.084Z,58.67
2023-04-15T07:48:57.986Z,59.66
2023-04-15T07:50:00.803Z,59.49
2023-04-15T07:51:03.534Z,58.28
2023-04-15T07:52:06.593Z,58.79
2023-04-15T07:53:09.447Z,58.40
2023-04-15T07:54:11.227Z,58.53
2023-04-15T07:55:14.029Z,58.88
2023-04-15T07:56:16.252Z,58.76
2023-04-15T07:57:19.132Z,58.08
2023-04-15T07:58:23.009Z,58.13
2023-04-15T07:59:27.599Z,57.55
2023-04-15T08:00:29.431Z,57.16
2023-04-15T08:01:33.236Z,56.77
2023-04-15T08:02:36.408Z,56.81
2023-04-15T08:03:41.253Z,56.79
2023-04-15T08:04:43.393Z,56.38
2023-04-15T08:05:47.326Z,56.19
2023-04-15T08:06:50.519Z,56.40
2023-04-15T08:07:53.317Z,56.13
2023-04-15T08:08:55.520Z,56.01
2023-04-15T08:09:58.285Z,56.07
2023-04-15T08:11:00.180Z,55.47
2023-04-15T08:12:03.364Z,55.66
2023-04-15T08:13:06.655Z,55.94
2023-04-15T08:14:09.844Z,55.32
2023-04-15T08:15:13.105Z,55.31
2023-04-15T08:16:18.947Z,55.44
2023-04-15T08:17:22.062Z,55.37
2023-04-15T08:18:23.952Z,55.14
2023-04-15T08:19:26.699Z,54.62
2023-04-15T08:20:28.642Z,54.54
2023-04-15T08:21:31.766Z,54.33
2023-04-15T08:22:33.648Z,54.27
2023-04-15T08:23:36.513Z,54.01
2023-04-15T08:24:39.160Z,53.15
2023-04-15T08:25:42.113Z,53.13
2023-04-15T08:26:44.365Z,53.69
2023-04-15T08:27:47.239Z,53.14
2023-04-15T08:28:49.543Z,53.01
2023-04-15T08:29:53.897Z,53.46
2023-04-15T08:30:56.030Z,52.74
2023-04-15T08:31:58.844Z,52.99
2023-04-15T08:33:01.172Z,52.40
2023-04-15T08:34:03.980Z,52.32
2023-04-15T08:35:06.367Z,51.81
2023-04-15T08:36:09.620Z,51.98
2023-04-15T08:37:12.687Z,51.58
2023-04-15T08:38:15.677Z,51.27
2023-04-15T08:39:17.928Z,51.26
2023-04-15T08:40:21.060Z,50.83
2023-04-15T08:41:23.784Z,51.25
2023-04-15T08:42:32.401Z,50.72
2023-04-15T08:43:35.544Z,50.67
2023-04-15T08:44:38.369Z,50.84
2023-04-15T08:45:42.614Z,50.84
2023-04-15T08:46:45.479Z,50.71
2023-04-15T08:47:48.938Z,50.62
2023-04-15T08:48:52.519Z,50.59
2023-04-15T08:49:55.594Z,50.42
2023-04-15T08:50:59.047Z,50.10
2023-04-15T08:52:01.480Z,50.40
2023-04-15T08:53:04.721Z,50.64
2023-04-15T08:54:08.778Z,51.15
2023-04-15T08:55:12.340Z,50.51
2023-04-15T08:56:16.464Z,50.50
2023-04-15T08:57:18.713Z,50.18
2023-04-15T08:58:21.816Z,50.41
2023-04-15T08:59:24.158Z,51.16
2023-04-15T09:00:27.599Z,51.16
2023-04-15T09:01:32.198Z,50.94
2023-04-15T09:02:35.088Z,50.92
2023-04-15T09:03:37.162Z,50.94
2023-04-15T09:04:40.603Z,51.44
2023-04-15T09:05:42.475Z,51.28
2023-04-15T09:06:45.341Z,51.56
2023-04-15T09:07:47.412Z,51.49
2023-04-15T09:08:50.388Z,51.48
2023-04-15T09:09:52.364Z,51.35
2023-04-15T09:10:55.319Z,51.82
2023-04-15T09:11:57.118Z,52.06
2023-04-15T09:12:59.927Z,52.25
2023-04-15T09:14:01.833Z,52.60
2023-04-15T09:15:05.213Z,52.47
2023-04-15T09:16:08.450Z,52.28
2023-04-15T09:17:11.809Z,52.45
2023-04-15T09:18:14.649Z,52.29
2023-04-15T09:19:22.034Z,52.09
2023-04-15T09:20:24.964Z,52.39
2023-04-15T09:21:27.698Z,52.68
2023-04-15T09:22:33.490Z,52.63
2023-04-15T09:23:35.693Z,53.00
2023-04-15T09:24:39.717Z,53.11
2023-04-15T09:25:42.548Z,53.06
2023-04-15T09:26:45.649Z,53.21
2023-04-15T09:27:48.579Z,53.39
2023-04-15T09:28:51.319Z,53.34
2023-04-15T09:29:54.124Z,53.73
2023-04-15T09:30:57.888Z,53.30
2023-04-15T09:32:11.678Z,52.61
2023-04-15T09:33:15.867Z,53.17
2023-04-15T09:34:18.779Z,53.10
2023-04-15T09:35:21.506Z,53.03
2023-04-15T09:36:25.150Z,52.87
2023-04-15T09:37:35.631Z,52.78
2023-04-15T09:38:56.024Z,51.60
2023-04-15T09:39:57.839Z,51.71
2023-04-15T09:41:00.989Z,52.23
2023-04-15T09:42:07.198Z,52.46
2023-04-15T09:43:12.837Z,52.10
2023-04-15T09:44:24.282Z,51.42
2023-04-15T09:45:29.572Z,51.98
2023-04-15T09:46:50.700Z,50.65
2023-04-15T09:47:54.114Z,51.12
2023-04-15T09:49:08.762Z,50.98
2023-04-15T09:50:11.580Z,50.65
2023-04-15T09:51:13.365Z,50.68
2023-04-15T09:52:16.125Z,50.99
2023-04-15T09:53:19.544Z,50.65
2023-04-15T09:54:22.952Z,49.79
2023-04-15T09:55:24.933Z,49.22
2023-04-15T09:56:33.606Z,49.06
2023-04-15T09:57:36.338Z,49.31
2023-04-15T09:58:39.365Z,49.35
2023-04-15T09:59:41.385Z,48.79
2023-04-15T10:00:44.629Z,48.71
2023-04-15T10:01:47.082Z,47.60
2023-04-15T10:02:50.481Z,47.51
2023-04-15T10:03:55.909Z,46.21
2023-04-15T10:04:59.042Z,46.09
2023-04-15T10:06:02.088Z,45.69
2023-04-15T10:07:05.524Z,46.18
2023-04-15T10:08:08.758Z,45.78
2023-04-15T10:09:10.843Z,45.39
2023-04-15T10:10:14.059Z,45.16
2023-04-15T10:11:17.516Z,45.17
2023-04-15T10:12:20.765Z,45.62
2023-04-15T10:13:26.098Z,45.35
2023-04-15T10:14:31.569Z,45.79
2023-04-15T10:15:35.298Z,45.49
2023-04-15T10:16:39.644Z,44.43
2023-04-15T10:17:44.879Z,44.90
2023-04-15T10:18:49.261Z,45.55
2023-04-15T10:19:55.061Z,44.85
2023-04-15T10:20:58.233Z,44.79
2023-04-15T10:22:00.481Z,45.02
2023-04-15T10:23:03.503Z,44.63
2023-04-15T10:24:06.214Z,44.71
2023-04-15T10:25:10.503Z,45.32
2023-04-15T10:26:14.727Z,44.89
2023-04-15T10:27:18.828Z,44.36
2023-04-15T10:28:22.725Z,44.05
2023-04-15T10:29:25.918Z,43.91
2023-04-15T10:30:29.058Z,43.67
2023-04-15T10:31:31.245Z,44.03
2023-04-15T10:32:34.242Z,43.98
2023-04-15T10:33:36.625Z,44.12
2023-04-15T10:34:39.658Z,44.26
2023-04-15T10:35:44.005Z,44.34
2023-04-15T10:36:47.058Z,44.35
2023-04-15T10:37:49.891Z,44.02
2023-04-15T10:38:51.672Z,44.26
2023-04-15T10:39:54.514Z,43.66
2023-04-15T10:41:13.161Z,43.14
2023-04-15T10:42:17.376Z,43.72
2023-04-15T10:43:26.380Z,43.61
2023-04-15T10:44:29.175Z,44.03
2023-04-15T10:45:33.443Z,44.63
2023-04-15T10:46:38.211Z,44.25
2023-04-15T10:47:40.124Z,44.04
2023-04-15T10:48:48.809Z,44.52
2023-04-15T10:49:53.594Z,44.85
2023-04-15T10:51:00.961Z,44.88
2023-04-15T10:52:04.243Z,44.90
2023-04-15T10:53:07.044Z,45.06
2023-04-15T10:54:10.464Z,44.87
2023-04-15T10:55:15.679Z,45.00
2023-04-15T10:56:17.494Z,44.72
2023-04-15T10:57:24.207Z,45.03
2023-04-15T10:58:27.313Z,45.01
2023-04-15T10:59:29.448Z,45.09
2023-04-15T11:00:35.225Z,45.29
2023-04-15T11:01:53.132Z,45.44
2023-04-15T11:02:57.869Z,45.99
2023-04-15T11:04:00.175Z,45.72
2023-04-15T11:05:03.816Z,45.20
2023-04-15T11:06:08.469Z,44.71
2023-04-15T11:07:10.970Z,44.82
2023-04-15T11:08:15.199Z,45.07
2023-04-15T11:09:32.969Z,44.75
2023-04-15T11:10:54.826Z,45.34
2023-04-15T11:12:08.392Z,45.09
2023-04-15T11:13:16.732Z,45.17
2023-04-15T11:14:19.521Z,45.20
2023-04-15T11:15:29.751Z,45.29
2023-04-15T11:16:32.669Z,44.82
2023-04-15T11:17:34.516Z,44.99
2023-04-15T11:18:38.003Z,44.97
2023-04-15T11:19:40.869Z,45.24
2023-04-15T11:20:45.732Z,44.15
2023-04-15T11:21:49.913Z,43.94
2023-04-15T11:23:08.030Z,44.00
2023-04-15T11:24:27.089Z,43.88
2023-04-15T11:25:31.051Z,44.31
2023-04-15T11:26:34.025Z,44.03
2023-04-15T11:27:35.801Z,44.05
2023-04-15T11:28:40.074Z,43.60
2023-04-15T11:29:41.974Z,43.72
2023-04-15T11:30:45.203Z,43.56
2023-04-15T11:31:49.582Z,43.46
2023-04-15T11:32:55.490Z,43.84
2023-04-15T11:34:00.343Z,43.76
2023-04-15T11:35:02.548Z,43.83
2023-04-15T11:36:05.712Z,44.45
2023-04-15T11:37:09.116Z,44.75
2023-04-15T11:38:13.631Z,44.61
2023-04-15T11:39:16.726Z,44.28
2023-04-15T11:40:23.853Z,44.23
2023-04-15T11:41:27.307Z,44.26
2023-04-15T11:42:39.341Z,43.81
2023-04-15T11:43:49.470Z,43.80
2023-04-15T11:45:07.416Z,43.95
2023-04-15T11:46:10.291Z,44.34
2023-04-15T11:47:23.098Z,43.87
2023-04-15T11:48:27.359Z,43.89
2023-04-15T11:49:30.652Z,44.00
2023-04-15T11:50:33.517Z,43.50
2023-04-15T11:51:37.180Z,43.71
2023-04-15T11:52:40.788Z,43.46
2023-04-15T11:53:45.850Z,43.39
2023-04-15T11:54:47.980Z,44.18
2023-04-15T11:55:53.152Z,43.79
2023-04-15T11:56:56.622Z,43.53
2023-04-15T11:58:14.477Z,42.67
2023-04-15T11:59:18.403Z,42.78
2023-04-15T12:00:20.416Z,42.12
2023-04-15T12:01:32.261Z,41.47
2023-04-15T12:02:37.136Z,41.81
2023-04-15T12:03:41.243Z,41.59
2023-04-15T12:04:43.641Z,41.93
2023-04-15T12:06:20.046Z,41.63
2023-04-15T12:07:21.870Z,42.53
2023-04-15T12:08:26.202Z,42.56
2023-04-15T12:09:29.939Z,42.48
2023-04-15T12:10:32.724Z,42.04
2023-04-15T12:11:40.917Z,42.33
2023-04-15T12:12:42.764Z,42.49
2023-04-15T12:13:46.080Z,43.03
2023-04-15T12:14:48.868Z,42.37
2023-04-15T12:15:50.744Z,41.67
2023-04-15T12:16:54.949Z,40.92
2023-04-15T12:17:59.899Z,40.76
2023-04-15T12:19:08.468Z,40.91
2023-04-15T12:20:11.970Z,41.23
2023-04-15T12:21:14.088Z,41.06
2023-04-15T12:22:17.934Z,41.33
2023-04-15T12:23:20.220Z,41.02
2023-04-15T12:24:24.378Z,40.71
2023-04-15T12:25:35.615Z,41.12
2023-04-15T12:26:38.991Z,41.45
2023-04-15T12:27:42.464Z,41.70
2023-04-15T12:28:44.276Z,41.61
2023-04-15T12:29:47.214Z,41.54
2023-04-15T12:30:50.017Z,42.04
2023-04-15T12:31:55.204Z,42.19
2023-04-15T12:32:57.871Z,42.53
2023-04-15T12:34:01.722Z,42.76
2023-04-15T12:35:05.308Z,43.11
2023-04-15T12:36:08.270Z,42.68
2023-04-15T12:37:13.729Z,42.87
2023-04-15T12:38:15.753Z,43.11
2023-04-15T12:39:18.571Z,43.16
2023-04-15T12:40:22.044Z,43.36
2023-04-15T12:41:25.397Z,43.31
2023-04-15T12:42:28.369Z,43.59
2023-04-15T12:43:30.204Z,43.42
2023-04-15T12:44:33.800Z,43.46
2023-04-15T12:45:35.852Z,44.04
2023-04-15T12:46:38.948Z,43.82
2023-04-15T12:47:41.772Z,44.07
2023-04-15T12:48:43.691Z,44.38
2023-04-15T12:49:46.922Z,44.00
2023-04-15T12:50:48.752Z,44.19
2023-04-15T12:51:53.022Z,44.37
2023-04-15T12:52:54.903Z,44.20
2023-04-15T12:53:57.977Z,43.94
2023-04-15T12:55:01.764Z,43.67
2023-04-15T12:56:05.421Z,43.63
2023-04-15T12:57:08.207Z,43.32
2023-04-15T12:58:11.763Z,43.44
2023-04-15T12:59:14.559Z,43.18
2023-04-15T13:00:16.793Z,43.10
2023-04-15T13:01:20.069Z,43.35
2023-04-15T13:02:25.552Z,44.06
2023-04-15T13:03:28.662Z,44.20
2023-04-15T13:04:31.321Z,43.99
2023-04-15T13:05:34.333Z,43.49
2023-04-15T13:06:36.340Z,43.47
2023-04-15T13:07:39.439Z,43.50
2023-04-15T13:08:47.997Z,43.01
2023-04-15T13:09:57.102Z,42.85
2023-04-15T13:11:00.138Z,42.26
2023-04-15T13:12:05.664Z,41.84
2023-04-15T13:13:07.935Z,42.08
2023-04-15T13:14:12.993Z,41.44
2023-04-15T13:15:15.031Z,40.78
2023-04-15T13:16:17.962Z,40.28
2023-04-15T13:17:22.240Z,39.99
2023-04-15T13:18:25.337Z,40.04
2023-04-15T13:19:27.168Z,40.09
2023-04-15T13:20:30.013Z,40.47
2023-04-15T13:21:35.053Z,40.56
2023-04-15T13:22:38.231Z,39.95
2023-04-15T13:23:41.674Z,38.92
2023-04-15T13:24:44.455Z,38.75
2023-04-15T13:25:46.437Z,38.61
2023-04-15T13:26:50.520Z,38.66
2023-04-15T13:27:53.771Z,38.56
2023-04-15T13:28:56.689Z,38.30
2023-04-15T13:29:58.570Z,38.08
2023-04-15T13:31:01.499Z,38.42
2023-04-15T13:32:03.389Z,38.18
2023-04-15T13:33:06.730Z,38.36
2023-04-15T13:34:08.539Z,39.13
2023-04-15T13:35:11.326Z,39.03
2023-04-15T13:36:14.210Z,38.64
2023-04-15T13:37:16.289Z,38.57
2023-04-15T13:38:19.247Z,38.50